sensor_id;sensor_type;location;lat;lon;timestamp;P1;durP1;ratioP1;P2;durP2;ratioP2
44169;SDS011;29836;52.286;9.576;2023-05-17T00:00:27;9.80;;;2.40;;
44169;SDS011;29836;52.286;9.576;2023-05-17T00:02:52;5.80;;;1.90;;
44169;SDS011;29836;52.286;9.576;2023-05-17T00:05:18;4.72;;;1.88;;
44169;SDS011;29836;52.286;9.576;2023-05-17T00:07:43;4.03;;;2.08;;
44169;SDS011;29836;52.286;9.576;2023-05-17T00:10:11;5.00;;;1.88;;
44169;SDS011;29836;52.286;9.576;2023-05-17T00:12:36;4.53;;;2.28;;
44169;SDS011;29836;52.286;9.576;2023-05-17T00:15:02;7.10;;;2.53;;
44169;SDS011;29836;52.286;9.576;2023-05-17T00:17:28;6.85;;;2.42;;
44169;SDS011;29836;52.286;9.576;2023-05-17T00:19:54;6.18;;;2.35;;
44169;SDS011;29836;52.286;9.576;2023-05-17T00:22:19;5.65;;;2.20;;
44169;SDS011;29836;52.286;9.576;2023-05-17T00:24:45;10.05;;;2.67;;
44169;SDS011;29836;52.286;9.576;2023-05-17T00:27:10;15.02;;;2.95;;
44169;SDS011;29836;52.286;9.576;2023-05-17T00:29:36;7.97;;;2.58;;
44169;SDS011;29836;52.286;9.576;2023-05-17T00:32:01;6.25;;;2.35;;
44169;SDS011;29836;52.286;9.576;2023-05-17T00:34:27;6.40;;;2.40;;
44169;SDS011;29836;52.286;9.576;2023-05-17T00:36:53;5.30;;;2.55;;
44169;SDS011;29836;52.286;9.576;2023-05-17T00:39:18;7.50;;;3.13;;
44169;SDS011;29836;52.286;9.576;2023-05-17T00:41:44;9.57;;;2.72;;
44169;SDS011;29836;52.286;9.576;2023-05-17T00:44:09;7.25;;;2.78;;
44169;SDS011;29836;52.286;9.576;2023-05-17T00:46:35;5.85;;;2.30;;
44169;SDS011;29836;52.286;9.576;2023-05-17T00:49:01;12.43;;;2.88;;
44169;SDS011;29836;52.286;9.576;2023-05-17T00:51:27;4.57;;;2.28;;
44169;SDS011;29836;52.286;9.576;2023-05-17T00:53:53;9.05;;;3.15;;
44169;SDS011;29836;52.286;9.576;2023-05-17T00:56:19;6.75;;;2.58;;
44169;SDS011;29836;52.286;9.576;2023-05-17T00:58:44;8.68;;;2.85;;
44169;SDS011;29836;52.286;9.576;2023-05-17T01:01:10;5.85;;;2.80;;
44169;SDS011;29836;52.286;9.576;2023-05-17T01:03:36;5.53;;;2.33;;
44169;SDS011;29836;52.286;9.576;2023-05-17T01:06:02;10.88;;;2.78;;
44169;SDS011;29836;52.286;9.576;2023-05-17T01:08:28;15.88;;;2.50;;
44169;SDS011;29836;52.286;9.576;2023-05-17T01:18:47;13.25;;;2.85;;
44169;SDS011;29836;52.286;9.576;2023-05-17T01:24:02;7.90;;;2.63;;
44169;SDS011;29836;52.286;9.576;2023-05-17T01:26:42;8.68;;;2.95;;
44169;SDS011;29836;52.286;9.576;2023-05-17T01:29:11;11.10;;;3.22;;
44169;SDS011;29836;52.286;9.576;2023-05-17T01:31:38;12.13;;;3.33;;
44169;SDS011;29836;52.286;9.576;2023-05-17T01:34:07;10.05;;;2.67;;
44169;SDS011;29836;52.286;9.576;2023-05-17T01:36:33;11.90;;;3.22;;
44169;SDS011;29836;52.286;9.576;2023-05-17T01:38:59;11.90;;;2.95;;
44169;SDS011;29836;52.286;9.576;2023-05-17T01:41:29;18.98;;;3.63;;
44169;SDS011;29836;52.286;9.576;2023-05-17T01:46:51;10.13;;;3.20;;
44169;SDS011;29836;52.286;9.576;2023-05-17T01:49:35;17.27;;;3.65;;
44169;SDS011;29836;52.286;9.576;2023-05-17T01:52:17;9.18;;;3.03;;
44169;SDS011;29836;52.286;9.576;2023-05-17T01:54:53;12.15;;;3.90;;
44169;SDS011;29836;52.286;9.576;2023-05-17T01:57:28;8.20;;;2.80;;
44169;SDS011;29836;52.286;9.576;2023-05-17T02:00:02;10.70;;;3.33;;
44169;SDS011;29836;52.286;9.576;2023-05-17T02:05:01;11.23;;;3.40;;
44169;SDS011;29836;52.286;9.576;2023-05-17T02:07:27;10.60;;;3.50;;
44169;SDS011;29836;52.286;9.576;2023-05-17T02:09:53;10.88;;;3.58;;
44169;SDS011;29836;52.286;9.576;2023-05-17T02:12:18;10.25;;;3.88;;
44169;SDS011;29836;52.286;9.576;2023-05-17T02:14:44;9.00;;;3.15;;
44169;SDS011;29836;52.286;9.576;2023-05-17T02:17:09;11.88;;;3.45;;
44169;SDS011;29836;52.286;9.576;2023-05-17T02:19:35;7.85;;;3.65;;
44169;SDS011;29836;52.286;9.576;2023-05-17T02:22:00;11.45;;;3.80;;
44169;SDS011;29836;52.286;9.576;2023-05-17T02:24:26;14.77;;;3.50;;
44169;SDS011;29836;52.286;9.576;2023-05-17T02:26:51;8.25;;;3.50;;
44169;SDS011;29836;52.286;9.576;2023-05-17T02:29:17;13.05;;;4.13;;
44169;SDS011;29836;52.286;9.576;2023-05-17T02:31:43;12.48;;;4.18;;
44169;SDS011;29836;52.286;9.576;2023-05-17T02:34:08;12.60;;;4.10;;
44169;SDS011;29836;52.286;9.576;2023-05-17T02:36:34;13.73;;;3.22;;
44169;SDS011;29836;52.286;9.576;2023-05-17T02:38:59;11.43;;;3.42;;
44169;SDS011;29836;52.286;9.576;2023-05-17T02:41:25;16.23;;;3.92;;
44169;SDS011;29836;52.286;9.576;2023-05-17T02:43:50;12.55;;;3.53;;
44169;SDS011;29836;52.286;9.576;2023-05-17T02:46:16;9.35;;;3.63;;
44169;SDS011;29836;52.286;9.576;2023-05-17T02:48:42;15.05;;;3.40;;
44169;SDS011;29836;52.286;9.576;2023-05-17T02:51:07;13.65;;;3.55;;
44169;SDS011;29836;52.286;9.576;2023-05-17T02:53:33;9.45;;;3.15;;
44169;SDS011;29836;52.286;9.576;2023-05-17T02:55:58;10.38;;;3.15;;
44169;SDS011;29836;52.286;9.576;2023-05-17T02:58:24;11.45;;;3.22;;
44169;SDS011;29836;52.286;9.576;2023-05-17T03:00:50;14.55;;;3.83;;
44169;SDS011;29836;52.286;9.576;2023-05-17T03:03:16;17.52;;;3.60;;
44169;SDS011;29836;52.286;9.576;2023-05-17T03:05:42;4.90;;;2.83;;
44169;SDS011;29836;52.286;9.576;2023-05-17T03:08:08;10.13;;;3.47;;
44169;SDS011;29836;52.286;9.576;2023-05-17T03:10:33;9.77;;;3.63;;
44169;SDS011;29836;52.286;9.576;2023-05-17T03:12:59;13.75;;;3.67;;
44169;SDS011;29836;52.286;9.576;2023-05-17T03:15:25;16.63;;;4.30;;
44169;SDS011;29836;52.286;9.576;2023-05-17T03:17:53;11.00;;;4.28;;
44169;SDS011;29836;52.286;9.576;2023-05-17T03:20:22;16.40;;;3.50;;
44169;SDS011;29836;52.286;9.576;2023-05-17T03:22:48;16.85;;;4.45;;
44169;SDS011;29836;52.286;9.576;2023-05-17T03:25:13;9.55;;;3.72;;
44169;SDS011;29836;52.286;9.576;2023-05-17T03:27:39;14.15;;;4.07;;
44169;SDS011;29836;52.286;9.576;2023-05-17T03:30:05;15.18;;;3.72;;
44169;SDS011;29836;52.286;9.576;2023-05-17T03:32:31;13.43;;;3.40;;
44169;SDS011;29836;52.286;9.576;2023-05-17T03:34:56;12.68;;;4.30;;
44169;SDS011;29836;52.286;9.576;2023-05-17T03:37:22;11.20;;;3.40;;
44169;SDS011;29836;52.286;9.576;2023-05-17T03:39:47;13.70;;;3.85;;
44169;SDS011;29836;52.286;9.576;2023-05-17T03:42:13;8.90;;;3.92;;
44169;SDS011;29836;52.286;9.576;2023-05-17T03:44:39;12.82;;;5.03;;
44169;SDS011;29836;52.286;9.576;2023-05-17T03:47:05;14.27;;;4.00;;
44169;SDS011;29836;52.286;9.576;2023-05-17T03:49:30;12.27;;;3.75;;
44169;SDS011;29836;52.286;9.576;2023-05-17T03:51:56;8.95;;;3.45;;
44169;SDS011;29836;52.286;9.576;2023-05-17T03:54:22;14.48;;;4.15;;
44169;SDS011;29836;52.286;9.576;2023-05-17T03:56:47;10.73;;;3.33;;
44169;SDS011;29836;52.286;9.576;2023-05-17T03:59:14;15.43;;;3.95;;
44169;SDS011;29836;52.286;9.576;2023-05-17T04:01:41;7.75;;;3.55;;
44169;SDS011;29836;52.286;9.576;2023-05-17T04:04:07;14.50;;;3.58;;
44169;SDS011;29836;52.286;9.576;2023-05-17T04:06:32;14.00;;;3.47;;
44169;SDS011;29836;52.286;9.576;2023-05-17T04:08:58;19.63;;;4.13;;
44169;SDS011;29836;52.286;9.576;2023-05-17T04:11:27;9.40;;;3.53;;
44169;SDS011;29836;52.286;9.576;2023-05-17T04:13:52;12.38;;;3.58;;
44169;SDS011;29836;52.286;9.576;2023-05-17T04:16:18;9.60;;;3.88;;
44169;SDS011;29836;52.286;9.576;2023-05-17T04:18:44;12.80;;;2.90;;
44169;SDS011;29836;52.286;9.576;2023-05-17T04:21:10;14.82;;;3.55;;
44169;SDS011;29836;52.286;9.576;2023-05-17T04:23:36;8.82;;;3.00;;
44169;SDS011;29836;52.286;9.576;2023-05-17T04:26:02;19.25;;;3.80;;
44169;SDS011;29836;52.286;9.576;2023-05-17T04:28:28;11.70;;;3.72;;
44169;SDS011;29836;52.286;9.576;2023-05-17T04:30:55;14.70;;;3.60;;
44169;SDS011;29836;52.286;9.576;2023-05-17T04:33:21;11.32;;;3.08;;
44169;SDS011;29836;52.286;9.576;2023-05-17T04:35:47;9.98;;;3.78;;
44169;SDS011;29836;52.286;9.576;2023-05-17T04:38:14;9.00;;;2.83;;
44169;SDS011;29836;52.286;9.576;2023-05-17T04:40:40;7.13;;;3.22;;
44169;SDS011;29836;52.286;9.576;2023-05-17T04:43:06;14.68;;;3.10;;
44169;SDS011;29836;52.286;9.576;2023-05-17T04:45:32;10.13;;;3.17;;
44169;SDS011;29836;52.286;9.576;2023-05-17T04:47:57;11.10;;;2.95;;
44169;SDS011;29836;52.286;9.576;2023-05-17T04:50:23;7.28;;;2.78;;
44169;SDS011;29836;52.286;9.576;2023-05-17T04:52:50;10.02;;;2.90;;
44169;SDS011;29836;52.286;9.576;2023-05-17T04:55:15;8.15;;;2.67;;
44169;SDS011;29836;52.286;9.576;2023-05-17T04:57:41;10.35;;;2.30;;
44169;SDS011;29836;52.286;9.576;2023-05-17T05:00:07;6.95;;;2.33;;
44169;SDS011;29836;52.286;9.576;2023-05-17T05:02:35;11.73;;;2.75;;
44169;SDS011;29836;52.286;9.576;2023-05-17T05:05:02;8.05;;;2.35;;
44169;SDS011;29836;52.286;9.576;2023-05-17T05:07:28;7.97;;;2.40;;
44169;SDS011;29836;52.286;9.576;2023-05-17T05:09:55;9.15;;;2.67;;
44169;SDS011;29836;52.286;9.576;2023-05-17T05:12:20;10.68;;;2.85;;
44169;SDS011;29836;52.286;9.576;2023-05-17T05:14:46;12.80;;;2.65;;
44169;SDS011;29836;52.286;9.576;2023-05-17T05:17:11;9.45;;;2.40;;
44169;SDS011;29836;52.286;9.576;2023-05-17T05:19:37;8.95;;;2.28;;
44169;SDS011;29836;52.286;9.576;2023-05-17T05:22:03;10.50;;;2.30;;
44169;SDS011;29836;52.286;9.576;2023-05-17T05:24:28;12.68;;;2.72;;
44169;SDS011;29836;52.286;9.576;2023-05-17T05:26:54;8.20;;;2.75;;
44169;SDS011;29836;52.286;9.576;2023-05-17T05:29:19;9.40;;;2.47;;
44169;SDS011;29836;52.286;9.576;2023-05-17T05:31:45;14.13;;;3.03;;
44169;SDS011;29836;52.286;9.576;2023-05-17T05:34:11;5.90;;;2.50;;
44169;SDS011;29836;52.286;9.576;2023-05-17T05:36:36;14.82;;;2.53;;
44169;SDS011;29836;52.286;9.576;2023-05-17T05:39:02;15.65;;;2.60;;
44169;SDS011;29836;52.286;9.576;2023-05-17T05:41:28;10.90;;;2.72;;
44169;SDS011;29836;52.286;9.576;2023-05-17T05:43:53;12.10;;;2.60;;
44169;SDS011;29836;52.286;9.576;2023-05-17T05:46:19;14.43;;;2.22;;
44169;SDS011;29836;52.286;9.576;2023-05-17T05:48:45;10.50;;;2.58;;
44169;SDS011;29836;52.286;9.576;2023-05-17T05:51:10;15.55;;;2.92;;
44169;SDS011;29836;52.286;9.576;2023-05-17T05:53:37;8.35;;;2.50;;
44169;SDS011;29836;52.286;9.576;2023-05-17T05:56:02;5.75;;;1.63;;
44169;SDS011;29836;52.286;9.576;2023-05-17T05:58:28;16.35;;;2.65;;
44169;SDS011;29836;52.286;9.576;2023-05-17T06:00:55;10.05;;;2.65;;
44169;SDS011;29836;52.286;9.576;2023-05-17T06:03:21;12.40;;;2.35;;
44169;SDS011;29836;52.286;9.576;2023-05-17T06:05:47;8.30;;;2.28;;
44169;SDS011;29836;52.286;9.576;2023-05-17T06:08:13;8.02;;;1.85;;
44169;SDS011;29836;52.286;9.576;2023-05-17T06:10:38;14.15;;;2.47;;
44169;SDS011;29836;52.286;9.576;2023-05-17T06:13:04;7.28;;;1.88;;
44169;SDS011;29836;52.286;9.576;2023-05-17T06:15:30;6.60;;;1.90;;
44169;SDS011;29836;52.286;9.576;2023-05-17T06:17:56;11.65;;;1.83;;
44169;SDS011;29836;52.286;9.576;2023-05-17T06:20:21;6.78;;;1.92;;
44169;SDS011;29836;52.286;9.576;2023-05-17T06:22:47;6.22;;;1.70;;
44169;SDS011;29836;52.286;9.576;2023-05-17T06:25:12;9.77;;;2.22;;
44169;SDS011;29836;52.286;9.576;2023-05-17T06:27:38;10.63;;;2.15;;
44169;SDS011;29836;52.286;9.576;2023-05-17T06:30:04;9.90;;;1.95;;
44169;SDS011;29836;52.286;9.576;2023-05-17T06:32:30;10.63;;;2.78;;
44169;SDS011;29836;52.286;9.576;2023-05-17T06:34:56;11.43;;;2.40;;
44169;SDS011;29836;52.286;9.576;2023-05-17T06:37:22;11.35;;;1.90;;
44169;SDS011;29836;52.286;9.576;2023-05-17T06:39:49;8.88;;;1.70;;
44169;SDS011;29836;52.286;9.576;2023-05-17T06:42:15;12.77;;;2.10;;
44169;SDS011;29836;52.286;9.576;2023-05-17T06:44:41;9.00;;;1.52;;
44169;SDS011;29836;52.286;9.576;2023-05-17T06:47:07;10.18;;;1.83;;
44169;SDS011;29836;52.286;9.576;2023-05-17T06:49:33;7.88;;;1.58;;
44169;SDS011;29836;52.286;9.576;2023-05-17T06:51:58;11.65;;;1.95;;
44169;SDS011;29836;52.286;9.576;2023-05-17T06:54:27;5.95;;;1.17;;
44169;SDS011;29836;52.286;9.576;2023-05-17T06:56:54;7.82;;;2.03;;
44169;SDS011;29836;52.286;9.576;2023-05-17T06:59:23;8.40;;;2.03;;
44169;SDS011;29836;52.286;9.576;2023-05-17T07:01:49;9.40;;;1.80;;
44169;SDS011;29836;52.286;9.576;2023-05-17T07:04:14;11.32;;;2.03;;
44169;SDS011;29836;52.286;9.576;2023-05-17T07:06:40;4.72;;;1.45;;
44169;SDS011;29836;52.286;9.576;2023-05-17T07:09:05;13.82;;;2.03;;
44169;SDS011;29836;52.286;9.576;2023-05-17T07:11:32;5.93;;;1.80;;
44169;SDS011;29836;52.286;9.576;2023-05-17T07:13:57;5.53;;;1.85;;
44169;SDS011;29836;52.286;9.576;2023-05-17T07:16:23;11.32;;;1.70;;
44169;SDS011;29836;52.286;9.576;2023-05-17T07:18:48;6.80;;;1.48;;
44169;SDS011;29836;52.286;9.576;2023-05-17T07:21:14;10.65;;;1.58;;
44169;SDS011;29836;52.286;9.576;2023-05-17T07:23:39;6.85;;;1.63;;
44169;SDS011;29836;52.286;9.576;2023-05-17T07:26:05;8.45;;;1.63;;
44169;SDS011;29836;52.286;9.576;2023-05-17T07:28:30;8.57;;;1.42;;
44169;SDS011;29836;52.286;9.576;2023-05-17T07:30:56;4.95;;;1.15;;
44169;SDS011;29836;52.286;9.576;2023-05-17T07:33:21;5.53;;;1.30;;
44169;SDS011;29836;52.286;9.576;2023-05-17T07:35:47;9.45;;;1.77;;
44169;SDS011;29836;52.286;9.576;2023-05-17T07:38:12;10.98;;;1.63;;
44169;SDS011;29836;52.286;9.576;2023-05-17T07:40:38;7.47;;;1.38;;
44169;SDS011;29836;52.286;9.576;2023-05-17T07:43:04;7.85;;;1.83;;
44169;SDS011;29836;52.286;9.576;2023-05-17T07:45:29;6.72;;;1.55;;
44169;SDS011;29836;52.286;9.576;2023-05-17T07:47:55;7.53;;;1.50;;
44169;SDS011;29836;52.286;9.576;2023-05-17T07:50:20;7.32;;;1.75;;
44169;SDS011;29836;52.286;9.576;2023-05-17T07:52:47;5.20;;;1.40;;
44169;SDS011;29836;52.286;9.576;2023-05-17T07:55:12;5.65;;;1.23;;
44169;SDS011;29836;52.286;9.576;2023-05-17T07:57:38;6.70;;;1.42;;
44169;SDS011;29836;52.286;9.576;2023-05-17T08:00:03;4.68;;;1.38;;
44169;SDS011;29836;52.286;9.576;2023-05-17T08:02:32;6.35;;;1.33;;
44169;SDS011;29836;52.286;9.576;2023-05-17T08:05:01;5.47;;;1.38;;
44169;SDS011;29836;52.286;9.576;2023-05-17T08:07:27;2.38;;;1.02;;
44169;SDS011;29836;52.286;9.576;2023-05-17T08:09:52;7.95;;;1.42;;
44169;SDS011;29836;52.286;9.576;2023-05-17T08:12:18;5.00;;;1.40;;
44169;SDS011;29836;52.286;9.576;2023-05-17T08:14:43;6.63;;;1.60;;
44169;SDS011;29836;52.286;9.576;2023-05-17T08:17:09;4.82;;;1.40;;
44169;SDS011;29836;52.286;9.576;2023-05-17T08:19:34;7.30;;;1.30;;
44169;SDS011;29836;52.286;9.576;2023-05-17T08:22:01;8.43;;;2.03;;
44169;SDS011;29836;52.286;9.576;2023-05-17T08:24:26;7.93;;;1.98;;
44169;SDS011;29836;52.286;9.576;2023-05-17T08:26:52;5.35;;;1.58;;
44169;SDS011;29836;52.286;9.576;2023-05-17T08:29:17;8.00;;;1.40;;
44169;SDS011;29836;52.286;9.576;2023-05-17T08:31:43;5.22;;;1.35;;
44169;SDS011;29836;52.286;9.576;2023-05-17T08:34:09;8.50;;;1.58;;
44169;SDS011;29836;52.286;9.576;2023-05-17T08:36:35;6.20;;;1.60;;
44169;SDS011;29836;52.286;9.576;2023-05-17T08:39:00;6.90;;;1.67;;
44169;SDS011;29836;52.286;9.576;2023-05-17T08:41:26;7.30;;;1.50;;
44169;SDS011;29836;52.286;9.576;2023-05-17T08:43:51;13.70;;;2.10;;
44169;SDS011;29836;52.286;9.576;2023-05-17T08:46:19;10.55;;;1.65;;
44169;SDS011;29836;52.286;9.576;2023-05-17T08:48:45;6.97;;;1.65;;
44169;SDS011;29836;52.286;9.576;2023-05-17T08:51:16;9.57;;;1.58;;
44169;SDS011;29836;52.286;9.576;2023-05-17T08:53:43;11.05;;;1.58;;
44169;SDS011;29836;52.286;9.576;2023-05-17T08:56:11;10.65;;;1.63;;
44169;SDS011;29836;52.286;9.576;2023-05-17T08:58:39;13.65;;;2.10;;
44169;SDS011;29836;52.286;9.576;2023-05-17T09:01:07;4.65;;;1.67;;
44169;SDS011;29836;52.286;9.576;2023-05-17T09:03:34;7.97;;;1.65;;
44169;SDS011;29836;52.286;9.576;2023-05-17T09:06:00;7.07;;;1.67;;
44169;SDS011;29836;52.286;9.576;2023-05-17T09:08:27;9.10;;;1.92;;
44169;SDS011;29836;52.286;9.576;2023-05-17T09:10:54;5.68;;;2.00;;
44169;SDS011;29836;52.286;9.576;2023-05-17T09:13:23;8.07;;;1.75;;
44169;SDS011;29836;52.286;9.576;2023-05-17T09:15:49;12.05;;;1.63;;
44169;SDS011;29836;52.286;9.576;2023-05-17T09:18:15;11.35;;;1.85;;
44169;SDS011;29836;52.286;9.576;2023-05-17T09:20:41;8.70;;;1.73;;
44169;SDS011;29836;52.286;9.576;2023-05-17T09:23:13;7.60;;;1.55;;
44169;SDS011;29836;52.286;9.576;2023-05-17T09:25:46;8.05;;;1.70;;
44169;SDS011;29836;52.286;9.576;2023-05-17T09:28:12;7.13;;;1.63;;
44169;SDS011;29836;52.286;9.576;2023-05-17T09:30:38;9.45;;;1.60;;
44169;SDS011;29836;52.286;9.576;2023-05-17T09:33:06;7.82;;;1.90;;
44169;SDS011;29836;52.286;9.576;2023-05-17T09:35:33;4.53;;;1.50;;
44169;SDS011;29836;52.286;9.576;2023-05-17T09:38:06;3.80;;;1.63;;
44169;SDS011;29836;52.286;9.576;2023-05-17T09:40:33;13.90;;;1.85;;
44169;SDS011;29836;52.286;9.576;2023-05-17T09:43:05;5.90;;;1.50;;
44169;SDS011;29836;52.286;9.576;2023-05-17T09:45:31;8.00;;;1.30;;
44169;SDS011;29836;52.286;9.576;2023-05-17T09:48:09;6.22;;;1.60;;
44169;SDS011;29836;52.286;9.576;2023-05-17T09:50:35;8.35;;;1.60;;
44169;SDS011;29836;52.286;9.576;2023-05-17T09:53:01;9.15;;;1.80;;
44169;SDS011;29836;52.286;9.576;2023-05-17T09:55:26;8.07;;;1.85;;
44169;SDS011;29836;52.286;9.576;2023-05-17T09:57:53;6.10;;;1.48;;
44169;SDS011;29836;52.286;9.576;2023-05-17T10:00:27;14.48;;;1.88;;
44169;SDS011;29836;52.286;9.576;2023-05-17T10:02:53;3.50;;;1.58;;
44169;SDS011;29836;52.286;9.576;2023-05-17T10:05:19;5.05;;;1.70;;
44169;SDS011;29836;52.286;9.576;2023-05-17T10:07:45;5.32;;;1.48;;
44169;SDS011;29836;52.286;9.576;2023-05-17T10:10:14;8.88;;;1.70;;
44169;SDS011;29836;52.286;9.576;2023-05-17T10:12:41;6.30;;;1.23;;
44169;SDS011;29836;52.286;9.576;2023-05-17T10:15:08;5.10;;;1.48;;
44169;SDS011;29836;52.286;9.576;2023-05-17T10:17:36;7.38;;;2.05;;
44169;SDS011;29836;52.286;9.576;2023-05-17T10:20:05;12.13;;;1.92;;
44169;SDS011;29836;52.286;9.576;2023-05-17T10:22:32;16.00;;;1.55;;
44169;SDS011;29836;52.286;9.576;2023-05-17T10:24:59;6.55;;;1.77;;
44169;SDS011;29836;52.286;9.576;2023-05-17T10:27:25;4.32;;;1.50;;
44169;SDS011;29836;52.286;9.576;2023-05-17T10:29:52;8.15;;;1.50;;
44169;SDS011;29836;52.286;9.576;2023-05-17T10:32:19;5.43;;;1.63;;
44169;SDS011;29836;52.286;9.576;2023-05-17T10:34:46;8.85;;;1.63;;
44169;SDS011;29836;52.286;9.576;2023-05-17T10:37:14;9.23;;;2.00;;
44169;SDS011;29836;52.286;9.576;2023-05-17T10:39:43;5.85;;;1.77;;
44169;SDS011;29836;52.286;9.576;2023-05-17T10:42:11;5.88;;;1.42;;
44169;SDS011;29836;52.286;9.576;2023-05-17T10:44:39;5.95;;;1.48;;
44169;SDS011;29836;52.286;9.576;2023-05-17T10:47:05;8.43;;;1.50;;
44169;SDS011;29836;52.286;9.576;2023-05-17T10:49:32;9.18;;;1.70;;
44169;SDS011;29836;52.286;9.576;2023-05-17T10:52:16;9.52;;;1.73;;
44169;SDS011;29836;52.286;9.576;2023-05-17T10:54:47;8.95;;;1.70;;
44169;SDS011;29836;52.286;9.576;2023-05-17T10:57:18;6.38;;;1.50;;
44169;SDS011;29836;52.286;9.576;2023-05-17T10:59:57;5.80;;;1.25;;
44169;SDS011;29836;52.286;9.576;2023-05-17T11:02:25;8.32;;;1.58;;
44169;SDS011;29836;52.286;9.576;2023-05-17T11:04:51;7.85;;;1.63;;
44169;SDS011;29836;52.286;9.576;2023-05-17T11:07:20;6.07;;;1.52;;
44169;SDS011;29836;52.286;9.576;2023-05-17T11:09:52;4.88;;;1.15;;
44169;SDS011;29836;52.286;9.576;2023-05-17T11:12:26;3.88;;;1.23;;
44169;SDS011;29836;52.286;9.576;2023-05-17T11:14:56;5.13;;;1.67;;
44169;SDS011;29836;52.286;9.576;2023-05-17T11:17:23;4.35;;;1.70;;
44169;SDS011;29836;52.286;9.576;2023-05-17T11:22:24;7.82;;;1.80;;
44169;SDS011;29836;52.286;9.576;2023-05-17T11:24:51;8.98;;;1.65;;
44169;SDS011;29836;52.286;9.576;2023-05-17T11:27:18;8.25;;;1.90;;
44169;SDS011;29836;52.286;9.576;2023-05-17T11:29:45;5.65;;;1.55;;
44169;SDS011;29836;52.286;9.576;2023-05-17T11:32:12;6.13;;;1.70;;
44169;SDS011;29836;52.286;9.576;2023-05-17T11:34:37;9.63;;;1.83;;
44169;SDS011;29836;52.286;9.576;2023-05-17T11:37:03;11.27;;;1.88;;
44169;SDS011;29836;52.286;9.576;2023-05-17T11:39:34;4.20;;;1.40;;
44169;SDS011;29836;52.286;9.576;2023-05-17T11:41:59;13.18;;;2.00;;
44169;SDS011;29836;52.286;9.576;2023-05-17T11:44:29;6.00;;;1.48;;
44169;SDS011;29836;52.286;9.576;2023-05-17T11:46:59;7.75;;;1.75;;
44169;SDS011;29836;52.286;9.576;2023-05-17T11:49:30;7.45;;;1.90;;
44169;SDS011;29836;52.286;9.576;2023-05-17T11:51:58;6.47;;;1.58;;
44169;SDS011;29836;52.286;9.576;2023-05-17T11:54:24;3.67;;;1.42;;
44169;SDS011;29836;52.286;9.576;2023-05-17T11:56:53;4.47;;;1.50;;
44169;SDS011;29836;52.286;9.576;2023-05-17T11:59:19;4.30;;;1.67;;
44169;SDS011;29836;52.286;9.576;2023-05-17T12:01:46;6.28;;;1.70;;
44169;SDS011;29836;52.286;9.576;2023-05-17T12:04:12;4.65;;;1.77;;
44169;SDS011;29836;52.286;9.576;2023-05-17T12:06:38;7.00;;;1.48;;
44169;SDS011;29836;52.286;9.576;2023-05-17T12:09:04;2.75;;;1.42;;
44169;SDS011;29836;52.286;9.576;2023-05-17T12:11:34;5.20;;;1.30;;
44169;SDS011;29836;52.286;9.576;2023-05-17T12:14:03;5.47;;;1.45;;
44169;SDS011;29836;52.286;9.576;2023-05-17T12:16:28;2.15;;;1.20;;
44169;SDS011;29836;52.286;9.576;2023-05-17T12:18:56;9.60;;;1.70;;
44169;SDS011;29836;52.286;9.576;2023-05-17T12:21:23;5.85;;;1.50;;
44169;SDS011;29836;52.286;9.576;2023-05-17T12:23:52;5.82;;;1.23;;
44169;SDS011;29836;52.286;9.576;2023-05-17T12:26:18;5.28;;;1.33;;
44169;SDS011;29836;52.286;9.576;2023-05-17T12:28:54;5.28;;;1.40;;
44169;SDS011;29836;52.286;9.576;2023-05-17T12:31:31;8.65;;;1.85;;
44169;SDS011;29836;52.286;9.576;2023-05-17T12:34:06;6.15;;;1.38;;
44169;SDS011;29836;52.286;9.576;2023-05-17T12:36:33;6.43;;;1.33;;
44169;SDS011;29836;52.286;9.576;2023-05-17T12:39:01;4.97;;;1.60;;
44169;SDS011;29836;52.286;9.576;2023-05-17T12:41:28;4.20;;;1.20;;
44169;SDS011;29836;52.286;9.576;2023-05-17T12:43:54;6.57;;;1.45;;
44169;SDS011;29836;52.286;9.576;2023-05-17T12:46:21;11.25;;;1.75;;
44169;SDS011;29836;52.286;9.576;2023-05-17T12:48:50;4.40;;;1.30;;
44169;SDS011;29836;52.286;9.576;2023-05-17T12:51:17;4.03;;;1.27;;
44169;SDS011;29836;52.286;9.576;2023-05-17T12:53:51;4.53;;;1.30;;
44169;SDS011;29836;52.286;9.576;2023-05-17T12:56:19;5.97;;;1.63;;
44169;SDS011;29836;52.286;9.576;2023-05-17T13:01:47;6.20;;;1.52;;
44169;SDS011;29836;52.286;9.576;2023-05-17T13:04:15;5.55;;;1.38;;
44169;SDS011;29836;52.286;9.576;2023-05-17T13:06:42;4.15;;;1.63;;
44169;SDS011;29836;52.286;9.576;2023-05-17T13:09:19;5.32;;;1.23;;
44169;SDS011;29836;52.286;9.576;2023-05-17T13:11:51;3.97;;;1.30;;
44169;SDS011;29836;52.286;9.576;2023-05-17T13:14:38;6.60;;;1.38;;
44169;SDS011;29836;52.286;9.576;2023-05-17T13:17:13;5.35;;;1.52;;
44169;SDS011;29836;52.286;9.576;2023-05-17T13:19:48;4.32;;;1.40;;
44169;SDS011;29836;52.286;9.576;2023-05-17T13:22:13;3.80;;;1.50;;
44169;SDS011;29836;52.286;9.576;2023-05-17T13:24:40;5.53;;;1.23;;
44169;SDS011;29836;52.286;9.576;2023-05-17T13:27:06;3.97;;;1.42;;
44169;SDS011;29836;52.286;9.576;2023-05-17T13:29:33;5.22;;;1.10;;
44169;SDS011;29836;52.286;9.576;2023-05-17T13:32:01;3.00;;;1.10;;
44169;SDS011;29836;52.286;9.576;2023-05-17T13:34:27;3.97;;;1.50;;
44169;SDS011;29836;52.286;9.576;2023-05-17T13:36:52;2.97;;;1.27;;
44169;SDS011;29836;52.286;9.576;2023-05-17T13:39:18;4.53;;;1.20;;
44169;SDS011;29836;52.286;9.576;2023-05-17T13:41:45;3.45;;;1.38;;
44169;SDS011;29836;52.286;9.576;2023-05-17T13:44:10;6.40;;;1.40;;
44169;SDS011;29836;52.286;9.576;2023-05-17T13:46:36;2.72;;;1.17;;
44169;SDS011;29836;52.286;9.576;2023-05-17T13:49:01;3.40;;;1.13;;
44169;SDS011;29836;52.286;9.576;2023-05-17T13:51:28;7.22;;;1.50;;
44169;SDS011;29836;52.286;9.576;2023-05-17T13:53:54;4.57;;;1.40;;
44169;SDS011;29836;52.286;9.576;2023-05-17T13:56:20;8.20;;;1.60;;
44169;SDS011;29836;52.286;9.576;2023-05-17T13:58:46;4.32;;;1.33;;
44169;SDS011;29836;52.286;9.576;2023-05-17T14:01:12;5.65;;;1.73;;
44169;SDS011;29836;52.286;9.576;2023-05-17T14:03:37;7.25;;;1.88;;
44169;SDS011;29836;52.286;9.576;2023-05-17T14:06:03;6.82;;;1.70;;
44169;SDS011;29836;52.286;9.576;2023-05-17T14:08:29;5.90;;;1.30;;
44169;SDS011;29836;52.286;9.576;2023-05-17T14:10:54;2.83;;;1.35;;
44169;SDS011;29836;52.286;9.576;2023-05-17T14:13:20;3.97;;;1.50;;
44169;SDS011;29836;52.286;9.576;2023-05-17T14:15:46;3.72;;;1.60;;
44169;SDS011;29836;52.286;9.576;2023-05-17T14:18:12;4.43;;;1.40;;
44169;SDS011;29836;52.286;9.576;2023-05-17T14:20:37;5.93;;;1.60;;
44169;SDS011;29836;52.286;9.576;2023-05-17T14:23:03;4.75;;;1.75;;
44169;SDS011;29836;52.286;9.576;2023-05-17T14:25:29;6.03;;;1.40;;
44169;SDS011;29836;52.286;9.576;2023-05-17T14:27:55;4.30;;;1.42;;
44169;SDS011;29836;52.286;9.576;2023-05-17T14:30:21;3.05;;;1.20;;
44169;SDS011;29836;52.286;9.576;2023-05-17T14:32:46;3.22;;;1.48;;
44169;SDS011;29836;52.286;9.576;2023-05-17T14:35:13;4.30;;;1.42;;
44169;SDS011;29836;52.286;9.576;2023-05-17T14:37:39;4.30;;;1.30;;
44169;SDS011;29836;52.286;9.576;2023-05-17T14:40:05;3.33;;;1.33;;
44169;SDS011;29836;52.286;9.576;2023-05-17T14:42:31;3.78;;;1.50;;
44169;SDS011;29836;52.286;9.576;2023-05-17T14:44:57;4.90;;;1.35;;
44169;SDS011;29836;52.286;9.576;2023-05-17T14:47:22;4.22;;;1.50;;
44169;SDS011;29836;52.286;9.576;2023-05-17T14:49:48;5.38;;;1.60;;
44169;SDS011;29836;52.286;9.576;2023-05-17T14:52:13;8.18;;;1.70;;
44169;SDS011;29836;52.286;9.576;2023-05-17T14:54:39;3.10;;;1.25;;
44169;SDS011;29836;52.286;9.576;2023-05-17T14:57:05;3.80;;;1.23;;
44169;SDS011;29836;52.286;9.576;2023-05-17T14:59:32;4.95;;;1.38;;
44169;SDS011;29836;52.286;9.576;2023-05-17T15:01:58;4.05;;;1.40;;